Inicio METAR Ruta Wind Satelite

Informe Meteorológico

Fecha: 2021/09/21 15:33:34 Local
2021.09.21 20:33 UTC


Operación:
SKGI 212000Z VRB02KT 9000 VCFG BKN023 30/24 Q1007 RMK A2976 =